Koushinmaru No.5 — JL6695 — position and weather

sailwx.info

Track history (hours):
 
Tides and Currents Weather Stations Pressure Air Temp Water Temp Dewpoint Dewpoint Depression Visibility Wind Speed Wind Dir Waves Ship Positions

Koushinmaru No.5

Last reported at 2015-Jan-28 00:25 UTC. Time now 2015-Jan-28 18:16 UTC.
Position N 33°40' E 130°10'.

Length 75 m; draft 3.4 m.

Type: Cargo ship. MMSI: 431301703.

Date/timePositionNaut miles runAvg speedWind from/ knotsBaromVisibWave heightAir tempDewpointWater temp
2015-Jan-28 00:25N 33°40' E 130°10'1011.8
2015-Jan-27 23:33N 33°47' E 130°19'  
2015-Jan-23 06:33N 34°60' E 139°30'1111.4
2015-Jan-23 05:33N 35°07' E 139°41'1010.3
2015-Jan-23 04:33N 35°17' E 139°45'9 8.5
2015-Jan-23 03:33N 35°25' E 139°46'4 3.8
2015-Jan-23 02:33N 35°22' E 139°49'0 0.1
2015-Jan-23 01:33N 35°22' E 139°49'0 0.0
2015-Jan-23 00:33N 35°22' E 139°49'0 0.0
2015-Jan-22 23:33N 35°22' E 139°49'0 0.0
2015-Jan-22 22:33N 35°22' E 139°49'0 0.0
2015-Jan-22 21:33N 35°22' E 139°49'0 0.0
2015-Jan-22 20:33N 35°22' E 139°49'0 0.1
2015-Jan-22 19:33N 35°22' E 139°49'0 0.0
2015-Jan-22 18:33N 35°22' E 139°49'0 0.0
2015-Jan-22 17:33N 35°22' E 139°49'0 0.0
2015-Jan-22 16:33N 35°22' E 139°49'0 0.0
2015-Jan-22 15:33N 35°22' E 139°49'0 0.0
2015-Jan-22 14:33N 35°22' E 139°49'0 0.0
2015-Jan-22 13:33N 35°22' E 139°49'0 0.0
2015-Jan-22 12:33N 35°22' E 139°49'0 0.0
2015-Jan-22 11:33N 35°22' E 139°49'0 0.0
2015-Jan-22 10:33N 35°22' E 139°49'0 0.0
2015-Jan-22 09:33N 35°22' E 139°49'0 0.0
2015-Jan-22 08:33N 35°22' E 139°49'0 0.0
2015-Jan-22 07:33N 35°22' E 139°49'0 0.0
2015-Jan-22 06:33N 35°22' E 139°49'0 0.0
2015-Jan-22 05:33N 35°22' E 139°49'0 0.0
2015-Jan-22 04:33N 35°22' E 139°49'0 0.0
2015-Jan-22 03:33N 35°22' E 139°49'0 0.0
2015-Jan-22 02:33N 35°22' E 139°49'0 0.0
2015-Jan-22 01:33N 35°22' E 139°49'0 0.0
2015-Jan-22 00:33N 35°22' E 139°49'0 0.0
2015-Jan-21 23:33N 35°22' E 139°49'0 0.1
2015-Jan-21 22:50N 35°22' E 139°49'0 0.1
2015-Jan-21 22:46N 35°22' E 139°49'0 0.0
2015-Jan-21 22:33N 35°22' E 139°49'0 0.0
2015-Jan-21 21:33N 35°22' E 139°49'0 0.0
2015-Jan-21 20:33N 35°22' E 139°49'2 1.7
2015-Jan-21 19:33N 35°22' E 139°51'0 0.0
2015-Jan-21 18:33N 35°22' E 139°51'0 0.0
2015-Jan-21 17:33N 35°22' E 139°51'0 0.0
2015-Jan-21 16:33N 35°22' E 139°51'0 0.0
2015-Jan-21 15:33N 35°22' E 139°51'2 2.1
2015-Jan-21 14:32N 35°22' E 139°54'0 0.0
2015-Jan-21 13:33N 35°22' E 139°54'0 0.0
2015-Jan-21 11:32N 35°22' E 139°54'0 0.0
2015-Jan-21 10:28N 35°22' E 139°54'2 1.8
2015-Jan-21 09:12N 35°23' E 139°51'710.0
2015-Jan-21 08:31N 35°29' E 139°51'6 0.2
2015-Jan-20 03:11N 35°36' E 139°50'8 0.5
2015-Jan-19 09:26N 35°27' E 139°50'910.1
2015-Jan-19 08:33N 35°20' E 139°44'10 9.8
2015-Jan-19 07:33N 35°10' E 139°47'1110.9
2015-Jan-19 06:32N 34°59' E 139°42'  
Track history (hours):
 
Tides and Currents Weather Stations Pressure Air Temp Water Temp Dewpoint Dewpoint Depression Visibility Wind Speed Wind Dir Waves Ship Positions

Koushinmaru No.5

Last reported at 2015-Jan-28 00:25 UTC. Time now 2015-Jan-28 18:16 UTC.
Position N 33°40' E 130°10'.

Length 75 m; draft 3.4 m.

Type: Cargo ship. MMSI: 431301703.

Date/timePositionNaut miles runAvg speedWind from/ knotsBaromVisibWave heightAir tempDewpointWater temp
2015-Jan-28 00:25N 33°40' E 130°10'1011.8
2015-Jan-27 23:33N 33°47' E 130°19'  
2015-Jan-23 06:33N 34°60' E 139°30'1111.4
2015-Jan-23 05:33N 35°07' E 139°41'1010.3
2015-Jan-23 04:33N 35°17' E 139°45'9 8.5
2015-Jan-23 03:33N 35°25' E 139°46'4 3.8
2015-Jan-23 02:33N 35°22' E 139°49'0 0.1
2015-Jan-23 01:33N 35°22' E 139°49'0 0.0
2015-Jan-23 00:33N 35°22' E 139°49'0 0.0
2015-Jan-22 23:33N 35°22' E 139°49'0 0.0
2015-Jan-22 22:33N 35°22' E 139°49'0 0.0
2015-Jan-22 21:33N 35°22' E 139°49'0 0.0
2015-Jan-22 20:33N 35°22' E 139°49'0 0.1
2015-Jan-22 19:33N 35°22' E 139°49'0 0.0
2015-Jan-22 18:33N 35°22' E 139°49'0 0.0
2015-Jan-22 17:33N 35°22' E 139°49'0 0.0
2015-Jan-22 16:33N 35°22' E 139°49'0 0.0
2015-Jan-22 15:33N 35°22' E 139°49'0 0.0
2015-Jan-22 14:33N 35°22' E 139°49'0 0.0
2015-Jan-22 13:33N 35°22' E 139°49'0 0.0
2015-Jan-22 12:33N 35°22' E 139°49'0 0.0
2015-Jan-22 11:33N 35°22' E 139°49'0 0.0
2015-Jan-22 10:33N 35°22' E 139°49'0 0.0
2015-Jan-22 09:33N 35°22' E 139°49'0 0.0
2015-Jan-22 08:33N 35°22' E 139°49'0 0.0
2015-Jan-22 07:33N 35°22' E 139°49'0 0.0
2015-Jan-22 06:33N 35°22' E 139°49'0 0.0
2015-Jan-22 05:33N 35°22' E 139°49'0 0.0
2015-Jan-22 04:33N 35°22' E 139°49'0 0.0
2015-Jan-22 03:33N 35°22' E 139°49'0 0.0
2015-Jan-22 02:33N 35°22' E 139°49'0 0.0
2015-Jan-22 01:33N 35°22' E 139°49'0 0.0
2015-Jan-22 00:33N 35°22' E 139°49'0 0.0
2015-Jan-21 23:33N 35°22' E 139°49'0 0.1
2015-Jan-21 22:50N 35°22' E 139°49'0 0.1
2015-Jan-21 22:46N 35°22' E 139°49'0 0.0
2015-Jan-21 22:33N 35°22' E 139°49'0 0.0
2015-Jan-21 21:33N 35°22' E 139°49'0 0.0
2015-Jan-21 20:33N 35°22' E 139°49'2 1.7
2015-Jan-21 19:33N 35°22' E 139°51'0 0.0
2015-Jan-21 18:33N 35°22' E 139°51'0 0.0
2015-Jan-21 17:33N 35°22' E 139°51'0 0.0
2015-Jan-21 16:33N 35°22' E 139°51'0 0.0
2015-Jan-21 15:33N 35°22' E 139°51'2 2.1
2015-Jan-21 14:32N 35°22' E 139°54'0 0.0
2015-Jan-21 13:33N 35°22' E 139°54'0 0.0
2015-Jan-21 11:32N 35°22' E 139°54'0 0.0
2015-Jan-21 10:28N 35°22' E 139°54'2 1.8
2015-Jan-21 09:12N 35°23' E 139°51'710.0
2015-Jan-21 08:31N 35°29' E 139°51'6 0.2
2015-Jan-20 03:11N 35°36' E 139°50'8 0.5
2015-Jan-19 09:26N 35°27' E 139°50'910.1
2015-Jan-19 08:33N 35°20' E 139°44'10 9.8
2015-Jan-19 07:33N 35°10' E 139°47'1110.9
2015-Jan-19 06:32N 34°59' E 139°42'  

Dump ship's entire track history